Alcorn State University, Mississippi
Current Conditions -  °F | °C
As of 1:55 AM on Monday 24 Nov 2014 (Local Time) from KHEZ Reporting Station
Clear Clear  
Wind Chill: 63°   Ceiling: Unl
Heat Index: 63°   Visibility: 10mi
Dew Point: 59°   Wind: 6mph
Humidity: 88%   Direction: 210°SSW
Pressure: 29.71"   Gusts: NA
Location:  31.8192°N, 91.1912°W
Report Text: KHEZ 240755Z AUTO 21005KT 10SM CLR 17/15 A2971 RMK AO1
Loading
Personal Weather Stations






























Interactive Weather Map New forecast layout! Learn more

10-Day Weather Forecast

Advertisements
Track Severe Weather on mobile